Hauptseite
METAR-TAF:

METAR-TAF

Flughäfen :

Flugplatz St. Gallen-Altenrhein

St. Gallen, Schweiz

Breite: 47-29-06N, Länge: 009-33-43E, Höhe: 398 m

Beobachtung

Neuester Wetterbericht von vor 22 Minuten, um 05:50 UTC
Wind 7 kt aus West
Temperatur 5°C
Luftfeuchtigkeit 93%
Luftdruck 1006 hPa
Sichtweite: 4900 m
Geschlossene Wolkendecke in der Höhe von 700 ft
Leichtregen, feuchter Dunst

METAR: LSZR 170550Z AUTO 26007KT 4900 -RA BR OVC007 05/04 Q1006

Zeit: 07:12 (06:12 UTC)

Prognose

Neuester Wetterbericht von vor 10 Stunden und 10 Minuten, um 20:02 UTC
Gültige Prognose vom 16 um 20 UTC bis 16 um 24 UTC
Wind 3 kt aus unterschiedlichen Richtungen
Sichtweite: 9000 m
Durchbrochene Bewölkung in der Höhe von 900 ft
Wahrscheinlichkeit 40%
vom 16 um 21 UTC bis 16 um 24 UTC
Sichtweite: 4500 m
feuchter Dunst

TAF: LSZR 162002Z 1620/1624 VRB03KT 9000 BKN009 PROB40 1621/1624 4500 BR

Wetterbeobachtungen und Prognosen von mehr als 4000 Flughäfen (METAR und TAF Bericht).

Die verfügbaren Stationen werden durch gelbe und rote Markierungen auf der Karte dargestellt.

Führen Sie die Maus auf sie, um den Namen der Station zu sehen.

Darauf klicken, um die Beobachtung von Wetterbeobachtungen und Prognosen zu sehen.

Um die Karte zu ändern : klicken Sie auf den grünen Tasten mit einem schwarzen Kreuz Zum Vergrößern, auf den grünen Button mit einem Gedankenstrich zu verkleinern, oder auf die grünen Pfeile für benachbarte Karten.


METAR-TAF: